sensor_id;sensor_type;location;lat;lon;timestamp;P1;durP1;ratioP1;P2;durP2;ratioP2
17955;SDS011;27666;51.498;11.966;2023-05-21T00:00:06;37.05;;;23.42;;
17955;SDS011;27666;51.498;11.966;2023-05-21T00:02:55;35.00;;;24.45;;
17955;SDS011;27666;51.498;11.966;2023-05-21T00:05:43;38.35;;;24.60;;
17955;SDS011;27666;51.498;11.966;2023-05-21T00:08:31;34.58;;;23.60;;
17955;SDS011;27666;51.498;11.966;2023-05-21T00:11:18;34.78;;;23.20;;
17955;SDS011;27666;51.498;11.966;2023-05-21T00:14:07;34.88;;;23.92;;
17955;SDS011;27666;51.498;11.966;2023-05-21T00:16:54;35.47;;;23.98;;
17955;SDS011;27666;51.498;11.966;2023-05-21T00:19:40;38.95;;;23.88;;
17955;SDS011;27666;51.498;11.966;2023-05-21T00:22:27;33.80;;;23.35;;
17955;SDS011;27666;51.498;11.966;2023-05-21T00:25:13;37.53;;;23.95;;
17955;SDS011;27666;51.498;11.966;2023-05-21T00:27:59;31.98;;;22.38;;
17955;SDS011;27666;51.498;11.966;2023-05-21T00:30:47;41.40;;;24.75;;
17955;SDS011;27666;51.498;11.966;2023-05-21T00:33:33;35.55;;;23.25;;
17955;SDS011;27666;51.498;11.966;2023-05-21T00:36:20;36.80;;;23.20;;
17955;SDS011;27666;51.498;11.966;2023-05-21T00:39:07;35.75;;;23.05;;
17955;SDS011;27666;51.498;11.966;2023-05-21T00:41:54;31.75;;;21.90;;
17955;SDS011;27666;51.498;11.966;2023-05-21T00:44:41;36.33;;;22.25;;
17955;SDS011;27666;51.498;11.966;2023-05-21T00:47:28;36.25;;;22.15;;
17955;SDS011;27666;51.498;11.966;2023-05-21T00:50:15;32.15;;;22.33;;
17955;SDS011;27666;51.498;11.966;2023-05-21T00:53:02;35.53;;;23.27;;
17955;SDS011;27666;51.498;11.966;2023-05-21T00:55:49;37.03;;;22.63;;
17955;SDS011;27666;51.498;11.966;2023-05-21T00:58:35;32.42;;;22.30;;
17955;SDS011;27666;51.498;11.966;2023-05-21T01:01:23;36.80;;;23.88;;
17955;SDS011;27666;51.498;11.966;2023-05-21T01:04:12;34.10;;;22.75;;
17955;SDS011;27666;51.498;11.966;2023-05-21T01:06:58;36.83;;;23.90;;
17955;SDS011;27666;51.498;11.966;2023-05-21T01:09:45;37.20;;;23.48;;
17955;SDS011;27666;51.498;11.966;2023-05-21T01:12:32;36.35;;;22.80;;
17955;SDS011;27666;51.498;11.966;2023-05-21T01:15:20;34.33;;;22.08;;
17955;SDS011;27666;51.498;11.966;2023-05-21T01:18:07;34.25;;;22.85;;
17955;SDS011;27666;51.498;11.966;2023-05-21T01:20:55;38.22;;;21.90;;
17955;SDS011;27666;51.498;11.966;2023-05-21T01:23:43;35.25;;;22.92;;
17955;SDS011;27666;51.498;11.966;2023-05-21T01:26:30;37.28;;;23.75;;
17955;SDS011;27666;51.498;11.966;2023-05-21T01:29:17;34.80;;;21.85;;
17955;SDS011;27666;51.498;11.966;2023-05-21T01:32:05;32.58;;;22.52;;
17955;SDS011;27666;51.498;11.966;2023-05-21T01:34:58;33.13;;;23.02;;
17955;SDS011;27666;51.498;11.966;2023-05-21T01:37:49;31.67;;;22.37;;
17955;SDS011;27666;51.498;11.966;2023-05-21T01:40:44;33.53;;;22.85;;
17955;SDS011;27666;51.498;11.966;2023-05-21T01:43:34;37.97;;;24.38;;
17955;SDS011;27666;51.498;11.966;2023-05-21T01:46:24;35.78;;;23.25;;
17955;SDS011;27666;51.498;11.966;2023-05-21T01:49:13;38.55;;;23.02;;
17955;SDS011;27666;51.498;11.966;2023-05-21T01:52:02;37.27;;;23.27;;
17955;SDS011;27666;51.498;11.966;2023-05-21T01:54:49;32.17;;;21.80;;
17955;SDS011;27666;51.498;11.966;2023-05-21T01:57:39;40.63;;;24.30;;
17955;SDS011;27666;51.498;11.966;2023-05-21T02:00:26;35.77;;;23.37;;
17955;SDS011;27666;51.498;11.966;2023-05-21T02:03:13;37.00;;;23.80;;
17955;SDS011;27666;51.498;11.966;2023-05-21T02:06:00;37.30;;;24.23;;
17955;SDS011;27666;51.498;11.966;2023-05-21T02:08:46;35.73;;;23.77;;
17955;SDS011;27666;51.498;11.966;2023-05-21T02:11:33;38.20;;;24.23;;
17955;SDS011;27666;51.498;11.966;2023-05-21T02:14:21;38.13;;;23.52;;
17955;SDS011;27666;51.498;11.966;2023-05-21T02:17:08;35.33;;;22.75;;
17955;SDS011;27666;51.498;11.966;2023-05-21T02:19:55;36.20;;;22.88;;
17955;SDS011;27666;51.498;11.966;2023-05-21T02:22:41;37.55;;;24.55;;
17955;SDS011;27666;51.498;11.966;2023-05-21T02:25:29;35.25;;;23.90;;
17955;SDS011;27666;51.498;11.966;2023-05-21T02:28:16;39.03;;;23.23;;
17955;SDS011;27666;51.498;11.966;2023-05-21T02:31:03;36.50;;;23.55;;
17955;SDS011;27666;51.498;11.966;2023-05-21T02:33:50;36.33;;;23.67;;
17955;SDS011;27666;51.498;11.966;2023-05-21T02:36:36;34.60;;;23.08;;
17955;SDS011;27666;51.498;11.966;2023-05-21T02:39:25;35.80;;;23.40;;
17955;SDS011;27666;51.498;11.966;2023-05-21T02:42:11;37.07;;;24.47;;
17955;SDS011;27666;51.498;11.966;2023-05-21T02:44:57;36.83;;;24.33;;
17955;SDS011;27666;51.498;11.966;2023-05-21T02:47:46;35.87;;;24.27;;
17955;SDS011;27666;51.498;11.966;2023-05-21T02:50:32;37.97;;;24.20;;
17955;SDS011;27666;51.498;11.966;2023-05-21T02:53:19;37.60;;;25.60;;
17955;SDS011;27666;51.498;11.966;2023-05-21T02:56:05;37.00;;;23.85;;
17955;SDS011;27666;51.498;11.966;2023-05-21T02:58:52;33.03;;;23.77;;
17955;SDS011;27666;51.498;11.966;2023-05-21T03:01:38;40.03;;;25.40;;
17955;SDS011;27666;51.498;11.966;2023-05-21T03:04:26;38.90;;;25.00;;
17955;SDS011;27666;51.498;11.966;2023-05-21T03:07:13;40.67;;;26.10;;
17955;SDS011;27666;51.498;11.966;2023-05-21T03:10:01;39.33;;;25.27;;
17955;SDS011;27666;51.498;11.966;2023-05-21T03:12:48;39.45;;;26.65;;
17955;SDS011;27666;51.498;11.966;2023-05-21T03:15:37;38.38;;;25.10;;
17955;SDS011;27666;51.498;11.966;2023-05-21T03:18:23;39.87;;;24.53;;
17955;SDS011;27666;51.498;11.966;2023-05-21T03:21:11;38.33;;;26.50;;
17955;SDS011;27666;51.498;11.966;2023-05-21T03:23:59;41.13;;;26.43;;
17955;SDS011;27666;51.498;11.966;2023-05-21T03:26:45;37.47;;;24.02;;
17955;SDS011;27666;51.498;11.966;2023-05-21T03:29:34;38.95;;;25.02;;
17955;SDS011;27666;51.498;11.966;2023-05-21T03:32:21;36.58;;;25.70;;
17955;SDS011;27666;51.498;11.966;2023-05-21T03:35:10;34.85;;;23.98;;
17955;SDS011;27666;51.498;11.966;2023-05-21T03:37:58;37.08;;;24.38;;
17955;SDS011;27666;51.498;11.966;2023-05-21T03:40:45;38.90;;;24.88;;
17955;SDS011;27666;51.498;11.966;2023-05-21T03:43:31;38.90;;;24.98;;
17955;SDS011;27666;51.498;11.966;2023-05-21T03:46:18;37.22;;;24.80;;
17955;SDS011;27666;51.498;11.966;2023-05-21T03:49:05;37.20;;;24.63;;
17955;SDS011;27666;51.498;11.966;2023-05-21T03:51:51;35.58;;;24.10;;
17955;SDS011;27666;51.498;11.966;2023-05-21T03:54:39;43.20;;;25.88;;
17955;SDS011;27666;51.498;11.966;2023-05-21T03:57:25;39.63;;;24.75;;
17955;SDS011;27666;51.498;11.966;2023-05-21T04:00:12;37.08;;;24.73;;
17955;SDS011;27666;51.498;11.966;2023-05-21T04:02:59;40.07;;;24.70;;
17955;SDS011;27666;51.498;11.966;2023-05-21T04:05:46;37.83;;;25.38;;
17955;SDS011;27666;51.498;11.966;2023-05-21T04:08:33;38.13;;;25.20;;
17955;SDS011;27666;51.498;11.966;2023-05-21T04:11:21;38.13;;;25.47;;
17955;SDS011;27666;51.498;11.966;2023-05-21T04:14:07;37.43;;;24.57;;
17955;SDS011;27666;51.498;11.966;2023-05-21T04:16:54;40.60;;;25.92;;
17955;SDS011;27666;51.498;11.966;2023-05-21T04:19:40;39.03;;;25.13;;
17955;SDS011;27666;51.498;11.966;2023-05-21T04:22:27;38.03;;;25.05;;
17955;SDS011;27666;51.498;11.966;2023-05-21T04:25:13;38.80;;;25.00;;
17955;SDS011;27666;51.498;11.966;2023-05-21T04:28:01;39.85;;;25.27;;
17955;SDS011;27666;51.498;11.966;2023-05-21T04:30:47;38.97;;;25.63;;
17955;SDS011;27666;51.498;11.966;2023-05-21T04:33:34;39.53;;;25.60;;
17955;SDS011;27666;51.498;11.966;2023-05-21T04:36:20;37.93;;;24.60;;
17955;SDS011;27666;51.498;11.966;2023-05-21T04:39:08;37.45;;;24.70;;
17955;SDS011;27666;51.498;11.966;2023-05-21T04:41:54;38.53;;;24.65;;
17955;SDS011;27666;51.498;11.966;2023-05-21T04:44:42;38.35;;;25.20;;
17955;SDS011;27666;51.498;11.966;2023-05-21T04:47:28;40.42;;;25.52;;
17955;SDS011;27666;51.498;11.966;2023-05-21T04:50:19;38.53;;;25.58;;
17955;SDS011;27666;51.498;11.966;2023-05-21T04:53:06;35.85;;;23.77;;
17955;SDS011;27666;51.498;11.966;2023-05-21T04:55:53;37.95;;;24.42;;
17955;SDS011;27666;51.498;11.966;2023-05-21T04:58:43;36.80;;;24.20;;
17955;SDS011;27666;51.498;11.966;2023-05-21T05:01:31;40.83;;;26.20;;
17955;SDS011;27666;51.498;11.966;2023-05-21T05:04:19;34.85;;;23.58;;
17955;SDS011;27666;51.498;11.966;2023-05-21T05:07:05;34.95;;;24.08;;
17955;SDS011;27666;51.498;11.966;2023-05-21T05:09:52;38.05;;;23.10;;
17955;SDS011;27666;51.498;11.966;2023-05-21T05:12:38;39.00;;;23.40;;
17955;SDS011;27666;51.498;11.966;2023-05-21T05:15:25;35.78;;;24.85;;
17955;SDS011;27666;51.498;11.966;2023-05-21T05:18:13;34.97;;;23.52;;
17955;SDS011;27666;51.498;11.966;2023-05-21T05:21:00;34.85;;;23.67;;
17955;SDS011;27666;51.498;11.966;2023-05-21T05:23:46;37.10;;;22.48;;
17955;SDS011;27666;51.498;11.966;2023-05-21T05:26:33;33.13;;;23.02;;
17955;SDS011;27666;51.498;11.966;2023-05-21T05:29:20;36.60;;;23.38;;
17955;SDS011;27666;51.498;11.966;2023-05-21T05:32:06;35.22;;;21.98;;
17955;SDS011;27666;51.498;11.966;2023-05-21T05:34:55;29.73;;;21.38;;
17955;SDS011;27666;51.498;11.966;2023-05-21T05:37:41;31.50;;;22.20;;
17955;SDS011;27666;51.498;11.966;2023-05-21T05:40:27;29.48;;;20.58;;
17955;SDS011;27666;51.498;11.966;2023-05-21T05:43:14;31.42;;;22.00;;
17955;SDS011;27666;51.498;11.966;2023-05-21T05:46:01;31.98;;;20.73;;
17955;SDS011;27666;51.498;11.966;2023-05-21T05:48:47;29.27;;;20.30;;
17955;SDS011;27666;51.498;11.966;2023-05-21T05:51:36;29.60;;;19.88;;
17955;SDS011;27666;51.498;11.966;2023-05-21T05:54:22;25.98;;;20.27;;
17955;SDS011;27666;51.498;11.966;2023-05-21T05:57:08;25.42;;;19.45;;
17955;SDS011;27666;51.498;11.966;2023-05-21T05:59:55;27.90;;;19.88;;
17955;SDS011;27666;51.498;11.966;2023-05-21T06:02:42;27.15;;;18.83;;
17955;SDS011;27666;51.498;11.966;2023-05-21T06:05:28;32.88;;;20.02;;
17955;SDS011;27666;51.498;11.966;2023-05-21T06:08:16;30.40;;;19.42;;
17955;SDS011;27666;51.498;11.966;2023-05-21T06:11:03;27.48;;;20.42;;
17955;SDS011;27666;51.498;11.966;2023-05-21T06:13:49;27.52;;;19.52;;
17955;SDS011;27666;51.498;11.966;2023-05-21T06:16:36;28.13;;;20.17;;
17955;SDS011;27666;51.498;11.966;2023-05-21T06:19:23;28.05;;;20.60;;
17955;SDS011;27666;51.498;11.966;2023-05-21T06:22:10;32.92;;;21.20;;
17955;SDS011;27666;51.498;11.966;2023-05-21T06:24:57;26.52;;;19.17;;
17955;SDS011;27666;51.498;11.966;2023-05-21T06:27:44;27.55;;;20.85;;
17955;SDS011;27666;51.498;11.966;2023-05-21T06:30:31;27.02;;;19.05;;
17955;SDS011;27666;51.498;11.966;2023-05-21T06:33:17;27.02;;;20.27;;
17955;SDS011;27666;51.498;11.966;2023-05-21T06:36:04;30.88;;;20.92;;
17955;SDS011;27666;51.498;11.966;2023-05-21T06:38:51;26.65;;;19.65;;
17955;SDS011;27666;51.498;11.966;2023-05-21T06:41:39;29.10;;;20.10;;
17955;SDS011;27666;51.498;11.966;2023-05-21T06:44:26;29.48;;;20.40;;
17955;SDS011;27666;51.498;11.966;2023-05-21T06:47:12;26.52;;;19.90;;
17955;SDS011;27666;51.498;11.966;2023-05-21T06:49:59;26.52;;;19.92;;
17955;SDS011;27666;51.498;11.966;2023-05-21T06:52:45;26.00;;;18.60;;
17955;SDS011;27666;51.498;11.966;2023-05-21T06:55:31;29.25;;;19.65;;
17955;SDS011;27666;51.498;11.966;2023-05-21T06:58:20;26.05;;;19.27;;
17955;SDS011;27666;51.498;11.966;2023-05-21T07:01:06;24.40;;;18.45;;
17955;SDS011;27666;51.498;11.966;2023-05-21T07:03:53;27.35;;;18.95;;
17955;SDS011;27666;51.498;11.966;2023-05-21T07:06:39;28.23;;;19.45;;
17955;SDS011;27666;51.498;11.966;2023-05-21T07:09:26;25.10;;;18.33;;
17955;SDS011;27666;51.498;11.966;2023-05-21T07:12:12;27.27;;;19.45;;
17955;SDS011;27666;51.498;11.966;2023-05-21T07:15:00;26.38;;;20.40;;
17955;SDS011;27666;51.498;11.966;2023-05-21T07:17:46;26.15;;;19.92;;
17955;SDS011;27666;51.498;11.966;2023-05-21T07:20:33;26.88;;;19.75;;
17955;SDS011;27666;51.498;11.966;2023-05-21T07:23:19;30.85;;;20.55;;
17955;SDS011;27666;51.498;11.966;2023-05-21T07:26:07;28.15;;;20.15;;
17955;SDS011;27666;51.498;11.966;2023-05-21T07:28:54;27.25;;;20.35;;
17955;SDS011;27666;51.498;11.966;2023-05-21T07:31:42;27.52;;;20.67;;
17955;SDS011;27666;51.498;11.966;2023-05-21T07:34:29;26.13;;;18.73;;
17955;SDS011;27666;51.498;11.966;2023-05-21T07:37:16;27.30;;;19.85;;
17955;SDS011;27666;51.498;11.966;2023-05-21T07:40:03;27.60;;;19.48;;
17955;SDS011;27666;51.498;11.966;2023-05-21T07:42:51;27.15;;;20.08;;
17955;SDS011;27666;51.498;11.966;2023-05-21T07:45:37;25.30;;;20.27;;
17955;SDS011;27666;51.498;11.966;2023-05-21T07:48:26;25.92;;;19.85;;
17955;SDS011;27666;51.498;11.966;2023-05-21T07:51:12;23.90;;;19.05;;
17955;SDS011;27666;51.498;11.966;2023-05-21T07:53:59;30.02;;;19.88;;
17955;SDS011;27666;51.498;11.966;2023-05-21T07:56:46;26.30;;;19.27;;
17955;SDS011;27666;51.498;11.966;2023-05-21T07:59:32;28.75;;;21.85;;
17955;SDS011;27666;51.498;11.966;2023-05-21T08:02:18;28.77;;;20.20;;
17955;SDS011;27666;51.498;11.966;2023-05-21T08:05:07;26.17;;;20.45;;
17955;SDS011;27666;51.498;11.966;2023-05-21T08:07:55;26.08;;;19.20;;
17955;SDS011;27666;51.498;11.966;2023-05-21T08:10:41;23.90;;;19.25;;
17955;SDS011;27666;51.498;11.966;2023-05-21T08:13:28;26.13;;;20.05;;
17955;SDS011;27666;51.498;11.966;2023-05-21T08:16:15;23.25;;;19.00;;
17955;SDS011;27666;51.498;11.966;2023-05-21T08:19:02;24.48;;;19.17;;
17955;SDS011;27666;51.498;11.966;2023-05-21T08:21:50;25.38;;;19.40;;
17955;SDS011;27666;51.498;11.966;2023-05-21T08:24:36;25.02;;;17.27;;
17955;SDS011;27666;51.498;11.966;2023-05-21T08:27:23;25.40;;;17.17;;
17955;SDS011;27666;51.498;11.966;2023-05-21T08:30:10;20.55;;;17.38;;
17955;SDS011;27666;51.498;11.966;2023-05-21T08:32:57;24.92;;;17.77;;
17955;SDS011;27666;51.498;11.966;2023-05-21T08:35:43;20.77;;;17.42;;
17955;SDS011;27666;51.498;11.966;2023-05-21T08:38:31;22.92;;;18.77;;
17955;SDS011;27666;51.498;11.966;2023-05-21T08:41:19;21.73;;;16.52;;
17955;SDS011;27666;51.498;11.966;2023-05-21T08:44:09;23.50;;;18.40;;
17955;SDS011;27666;51.498;11.966;2023-05-21T08:46:56;23.05;;;17.00;;
17955;SDS011;27666;51.498;11.966;2023-05-21T08:49:47;21.17;;;17.42;;
17955;SDS011;27666;51.498;11.966;2023-05-21T08:52:35;24.80;;;19.25;;
17955;SDS011;27666;51.498;11.966;2023-05-21T08:55:23;19.73;;;16.73;;
17955;SDS011;27666;51.498;11.966;2023-05-21T08:58:10;20.75;;;16.92;;
17955;SDS011;27666;51.498;11.966;2023-05-21T09:00:58;18.48;;;15.45;;
17955;SDS011;27666;51.498;11.966;2023-05-21T09:03:45;21.63;;;15.95;;
17955;SDS011;27666;51.498;11.966;2023-05-21T09:06:33;21.05;;;16.08;;
17955;SDS011;27666;51.498;11.966;2023-05-21T09:09:21;22.33;;;15.20;;
17955;SDS011;27666;51.498;11.966;2023-05-21T09:12:14;20.88;;;17.15;;
17955;SDS011;27666;51.498;11.966;2023-05-21T09:15:01;21.05;;;16.08;;
17955;SDS011;27666;51.498;11.966;2023-05-21T09:17:49;19.02;;;14.57;;
17955;SDS011;27666;51.498;11.966;2023-05-21T09:20:35;21.88;;;16.35;;
17955;SDS011;27666;51.498;11.966;2023-05-21T09:23:21;19.45;;;16.13;;
17955;SDS011;27666;51.498;11.966;2023-05-21T09:26:09;24.73;;;16.15;;
17955;SDS011;27666;51.498;11.966;2023-05-21T09:28:59;18.23;;;14.52;;
17955;SDS011;27666;51.498;11.966;2023-05-21T09:31:45;20.30;;;14.93;;
17955;SDS011;27666;51.498;11.966;2023-05-21T09:34:34;20.13;;;15.10;;
17955;SDS011;27666;51.498;11.966;2023-05-21T09:37:21;17.23;;;14.68;;
17955;SDS011;27666;51.498;11.966;2023-05-21T09:40:12;21.02;;;15.52;;
17955;SDS011;27666;51.498;11.966;2023-05-21T09:42:59;22.60;;;15.93;;
17955;SDS011;27666;51.498;11.966;2023-05-21T09:45:50;20.73;;;14.88;;
17955;SDS011;27666;51.498;11.966;2023-05-21T09:48:45;16.02;;;13.95;;
17955;SDS011;27666;51.498;11.966;2023-05-21T09:51:32;22.48;;;14.48;;
17955;SDS011;27666;51.498;11.966;2023-05-21T09:54:23;17.85;;;13.88;;
17955;SDS011;27666;51.498;11.966;2023-05-21T09:57:10;19.60;;;14.18;;
17955;SDS011;27666;51.498;11.966;2023-05-21T09:59:59;19.35;;;14.85;;
17955;SDS011;27666;51.498;11.966;2023-05-21T10:02:47;17.45;;;13.07;;
17955;SDS011;27666;51.498;11.966;2023-05-21T10:05:35;17.95;;;14.85;;
17955;SDS011;27666;51.498;11.966;2023-05-21T10:08:22;37.58;;;25.85;;
17955;SDS011;27666;51.498;11.966;2023-05-21T10:11:11;19.67;;;13.85;;
17955;SDS011;27666;51.498;11.966;2023-05-21T10:14:00;16.63;;;13.90;;
17955;SDS011;27666;51.498;11.966;2023-05-21T10:16:50;16.85;;;13.50;;
17955;SDS011;27666;51.498;11.966;2023-05-21T10:19:40;20.52;;;14.90;;
17955;SDS011;27666;51.498;11.966;2023-05-21T10:22:28;19.52;;;13.85;;
17955;SDS011;27666;51.498;11.966;2023-05-21T10:25:15;18.30;;;13.18;;
17955;SDS011;27666;51.498;11.966;2023-05-21T10:28:02;15.70;;;13.13;;
17955;SDS011;27666;51.498;11.966;2023-05-21T10:30:51;16.58;;;14.02;;
17955;SDS011;27666;51.498;11.966;2023-05-21T10:33:38;17.92;;;14.15;;
17955;SDS011;27666;51.498;11.966;2023-05-21T10:36:31;18.05;;;14.00;;
17955;SDS011;27666;51.498;11.966;2023-05-21T10:39:19;18.65;;;13.38;;
17955;SDS011;27666;51.498;11.966;2023-05-21T10:42:11;16.88;;;13.57;;
17955;SDS011;27666;51.498;11.966;2023-05-21T10:45:07;18.50;;;12.95;;
17955;SDS011;27666;51.498;11.966;2023-05-21T10:48:05;16.17;;;11.88;;
17955;SDS011;27666;51.498;11.966;2023-05-21T10:51:09;15.95;;;12.20;;
17955;SDS011;27666;51.498;11.966;2023-05-21T10:54:17;15.00;;;12.40;;
17955;SDS011;27666;51.498;11.966;2023-05-21T10:57:36;15.80;;;11.68;;
17955;SDS011;27666;51.498;11.966;2023-05-21T11:00:38;15.32;;;12.10;;
17955;SDS011;27666;51.498;11.966;2023-05-21T11:03:25;15.95;;;12.95;;
17955;SDS011;27666;51.498;11.966;2023-05-21T11:06:20;15.18;;;11.77;;
17955;SDS011;27666;51.498;11.966;2023-05-21T11:09:10;14.13;;;12.15;;
17955;SDS011;27666;51.498;11.966;2023-05-21T11:11:58;17.42;;;13.45;;
17955;SDS011;27666;51.498;11.966;2023-05-21T11:14:54;15.95;;;10.80;;
17955;SDS011;27666;51.498;11.966;2023-05-21T11:17:41;13.27;;;10.50;;
17955;SDS011;27666;51.498;11.966;2023-05-21T11:20:32;14.93;;;11.45;;
17955;SDS011;27666;51.498;11.966;2023-05-21T11:23:19;17.92;;;11.75;;
17955;SDS011;27666;51.498;11.966;2023-05-21T11:26:06;15.15;;;12.20;;
17955;SDS011;27666;51.498;11.966;2023-05-21T11:29:05;12.13;;;10.82;;
17955;SDS011;27666;51.498;11.966;2023-05-21T11:31:57;13.90;;;9.70;;
17955;SDS011;27666;51.498;11.966;2023-05-21T11:34:46;12.63;;;10.90;;
17955;SDS011;27666;51.498;11.966;2023-05-21T11:37:33;13.00;;;10.50;;
17955;SDS011;27666;51.498;11.966;2023-05-21T11:40:24;13.65;;;9.70;;
17955;SDS011;27666;51.498;11.966;2023-05-21T11:43:14;12.82;;;9.85;;
17955;SDS011;27666;51.498;11.966;2023-05-21T11:46:02;9.93;;;8.70;;
17955;SDS011;27666;51.498;11.966;2023-05-21T11:48:49;11.60;;;8.45;;
17955;SDS011;27666;51.498;11.966;2023-05-21T11:51:38;11.40;;;8.75;;
17955;SDS011;27666;51.498;11.966;2023-05-21T11:54:25;13.88;;;8.85;;
17955;SDS011;27666;51.498;11.966;2023-05-21T11:57:12;10.57;;;8.07;;
17955;SDS011;27666;51.498;11.966;2023-05-21T12:00:00;10.25;;;8.25;;
17955;SDS011;27666;51.498;11.966;2023-05-21T12:02:59;13.15;;;8.52;;
17955;SDS011;27666;51.498;11.966;2023-05-21T12:05:46;10.02;;;8.20;;
17955;SDS011;27666;51.498;11.966;2023-05-21T12:08:34;12.63;;;8.30;;
17955;SDS011;27666;51.498;11.966;2023-05-21T12:11:21;9.60;;;7.30;;
17955;SDS011;27666;51.498;11.966;2023-05-21T12:14:08;9.48;;;7.43;;
17955;SDS011;27666;51.498;11.966;2023-05-21T12:16:56;11.82;;;7.68;;
17955;SDS011;27666;51.498;11.966;2023-05-21T12:19:44;10.43;;;7.60;;
17955;SDS011;27666;51.498;11.966;2023-05-21T12:22:31;9.75;;;8.27;;
17955;SDS011;27666;51.498;11.966;2023-05-21T12:25:18;9.57;;;7.88;;
17955;SDS011;27666;51.498;11.966;2023-05-21T12:28:05;9.07;;;8.13;;
17955;SDS011;27666;51.498;11.966;2023-05-21T12:30:51;11.48;;;8.05;;
17955;SDS011;27666;51.498;11.966;2023-05-21T12:33:38;12.88;;;8.00;;
17955;SDS011;27666;51.498;11.966;2023-05-21T12:36:27;9.57;;;8.25;;
17955;SDS011;27666;51.498;11.966;2023-05-21T12:39:15;12.45;;;8.35;;
17955;SDS011;27666;51.498;11.966;2023-05-21T12:42:01;14.77;;;8.70;;
17955;SDS011;27666;51.498;11.966;2023-05-21T12:44:48;11.95;;;9.05;;
17955;SDS011;27666;51.498;11.966;2023-05-21T12:47:37;8.63;;;7.60;;
17955;SDS011;27666;51.498;11.966;2023-05-21T12:50:24;10.30;;;8.30;;
17955;SDS011;27666;51.498;11.966;2023-05-21T12:53:12;12.43;;;8.25;;
17955;SDS011;27666;51.498;11.966;2023-05-21T12:56:05;10.68;;;8.80;;
17955;SDS011;27666;51.498;11.966;2023-05-21T12:58:53;12.05;;;8.43;;
17955;SDS011;27666;51.498;11.966;2023-05-21T13:01:40;11.00;;;8.98;;
17955;SDS011;27666;51.498;11.966;2023-05-21T13:04:26;11.77;;;8.55;;
17955;SDS011;27666;51.498;11.966;2023-05-21T13:07:13;12.65;;;9.32;;
17955;SDS011;27666;51.498;11.966;2023-05-21T13:10:02;11.52;;;9.35;;
17955;SDS011;27666;51.498;11.966;2023-05-21T13:12:50;11.13;;;8.70;;
17955;SDS011;27666;51.498;11.966;2023-05-21T13:15:37;10.85;;;9.07;;
17955;SDS011;27666;51.498;11.966;2023-05-21T13:18:23;10.40;;;8.77;;
17955;SDS011;27666;51.498;11.966;2023-05-21T13:21:11;13.55;;;8.93;;
17955;SDS011;27666;51.498;11.966;2023-05-21T13:23:57;12.18;;;9.27;;
17955;SDS011;27666;51.498;11.966;2023-05-21T13:26:45;12.35;;;8.93;;
17955;SDS011;27666;51.498;11.966;2023-05-21T13:29:32;12.68;;;9.73;;
17955;SDS011;27666;51.498;11.966;2023-05-21T13:32:19;10.40;;;8.68;;
17955;SDS011;27666;51.498;11.966;2023-05-21T13:35:07;9.98;;;8.95;;
17955;SDS011;27666;51.498;11.966;2023-05-21T13:37:56;15.10;;;9.23;;
17955;SDS011;27666;51.498;11.966;2023-05-21T13:40:42;11.93;;;9.15;;
17955;SDS011;27666;51.498;11.966;2023-05-21T13:43:30;12.13;;;9.13;;
17955;SDS011;27666;51.498;11.966;2023-05-21T13:46:17;10.38;;;8.80;;
17955;SDS011;27666;51.498;11.966;2023-05-21T13:49:04;12.50;;;8.60;;
17955;SDS011;27666;51.498;11.966;2023-05-21T13:51:51;14.57;;;9.40;;
17955;SDS011;27666;51.498;11.966;2023-05-21T13:54:38;11.18;;;9.43;;
17955;SDS011;27666;51.498;11.966;2023-05-21T13:57:24;11.65;;;9.35;;
17955;SDS011;27666;51.498;11.966;2023-05-21T14:00:15;11.52;;;9.27;;
17955;SDS011;27666;51.498;11.966;2023-05-21T14:03:02;10.13;;;9.05;;
17955;SDS011;27666;51.498;11.966;2023-05-21T14:05:50;13.75;;;9.18;;
17955;SDS011;27666;51.498;11.966;2023-05-21T14:08:37;12.32;;;8.68;;
17955;SDS011;27666;51.498;11.966;2023-05-21T14:11:24;12.00;;;9.20;;
17955;SDS011;27666;51.498;11.966;2023-05-21T14:14:10;12.60;;;9.18;;
17955;SDS011;27666;51.498;11.966;2023-05-21T14:17:04;15.00;;;9.32;;
17955;SDS011;27666;51.498;11.966;2023-05-21T14:19:51;14.45;;;9.90;;
17955;SDS011;27666;51.498;11.966;2023-05-21T14:22:38;13.05;;;9.52;;
17955;SDS011;27666;51.498;11.966;2023-05-21T14:25:25;12.55;;;9.82;;
17955;SDS011;27666;51.498;11.966;2023-05-21T14:28:11;11.20;;;9.52;;
17955;SDS011;27666;51.498;11.966;2023-05-21T14:30:57;11.98;;;9.82;;
17955;SDS011;27666;51.498;11.966;2023-05-21T14:33:45;13.73;;;10.43;;
17955;SDS011;27666;51.498;11.966;2023-05-21T14:36:31;13.00;;;9.90;;
17955;SDS011;27666;51.498;11.966;2023-05-21T14:39:18;12.27;;;10.98;;
17955;SDS011;27666;51.498;11.966;2023-05-21T14:42:04;12.13;;;10.48;;
17955;SDS011;27666;51.498;11.966;2023-05-21T14:44:51;15.55;;;10.85;;
17955;SDS011;27666;51.498;11.966;2023-05-21T14:47:37;16.50;;;10.65;;
17955;SDS011;27666;51.498;11.966;2023-05-21T14:50:25;15.18;;;10.00;;
17955;SDS011;27666;51.498;11.966;2023-05-21T14:53:12;12.95;;;10.15;;
17955;SDS011;27666;51.498;11.966;2023-05-21T14:55:58;11.48;;;10.18;;
17955;SDS011;27666;51.498;11.966;2023-05-21T14:58:47;18.38;;;10.90;;
17955;SDS011;27666;51.498;11.966;2023-05-21T15:01:33;15.20;;;10.63;;
17955;SDS011;27666;51.498;11.966;2023-05-21T15:04:20;11.98;;;9.32;;
17955;SDS011;27666;51.498;11.966;2023-05-21T15:07:08;12.77;;;9.48;;
17955;SDS011;27666;51.498;11.966;2023-05-21T15:09:55;13.85;;;9.60;;
17955;SDS011;27666;51.498;11.966;2023-05-21T15:12:41;10.73;;;9.07;;
17955;SDS011;27666;51.498;11.966;2023-05-21T15:15:28;13.55;;;9.65;;
17955;SDS011;27666;51.498;11.966;2023-05-21T15:18:14;11.48;;;8.60;;
17955;SDS011;27666;51.498;11.966;2023-05-21T15:21:01;13.80;;;9.23;;
17955;SDS011;27666;51.498;11.966;2023-05-21T15:23:48;16.98;;;9.32;;
17955;SDS011;27666;51.498;11.966;2023-05-21T15:26:35;14.80;;;10.32;;
17955;SDS011;27666;51.498;11.966;2023-05-21T15:29:21;13.02;;;10.27;;
17955;SDS011;27666;51.498;11.966;2023-05-21T15:32:08;11.73;;;10.15;;
17955;SDS011;27666;51.498;11.966;2023-05-21T15:34:54;12.93;;;10.77;;
17955;SDS011;27666;51.498;11.966;2023-05-21T15:37:41;13.70;;;10.98;;
17955;SDS011;27666;51.498;11.966;2023-05-21T15:40:31;14.52;;;11.68;;
17955;SDS011;27666;51.498;11.966;2023-05-21T15:43:17;13.85;;;11.50;;
17955;SDS011;27666;51.498;11.966;2023-05-21T15:46:04;13.70;;;11.50;;
17955;SDS011;27666;51.498;11.966;2023-05-21T15:48:50;14.82;;;11.55;;
17955;SDS011;27666;51.498;11.966;2023-05-21T15:51:37;15.82;;;12.13;;
17955;SDS011;27666;51.498;11.966;2023-05-21T15:54:24;14.57;;;11.07;;
17955;SDS011;27666;51.498;11.966;2023-05-21T15:57:12;13.75;;;11.43;;
17955;SDS011;27666;51.498;11.966;2023-05-21T15:59:58;15.30;;;12.10;;
17955;SDS011;27666;51.498;11.966;2023-05-21T16:02:45;12.63;;;11.10;;
17955;SDS011;27666;51.498;11.966;2023-05-21T16:05:32;12.75;;;10.95;;
17955;SDS011;27666;51.498;11.966;2023-05-21T16:08:18;15.73;;;10.77;;